createdAt,value
2023-01-06T00:00:45.345Z,99041.13
2023-01-06T00:04:05.207Z,99044.73
2023-01-06T00:07:23.347Z,99049.17
2023-01-06T00:10:39.486Z,99045.03
2023-01-06T00:13:56.165Z,99046.69
2023-01-06T00:17:12.261Z,99050.95
2023-01-06T00:20:29.493Z,99057.78
2023-01-06T00:23:46.806Z,99053.34
2023-01-06T00:27:02.984Z,99059.14
2023-01-06T00:30:21.983Z,99062.03
2023-01-06T00:33:39.027Z,99058.73
2023-01-06T00:36:56.982Z,99075.79
2023-01-06T00:40:16.264Z,99080.90
2023-01-06T00:43:32.211Z,99078.53
2023-01-06T00:46:48.616Z,99077.98
2023-01-06T00:50:04.738Z,99085.47
2023-01-06T00:53:21.493Z,99100.28
2023-01-06T00:56:37.960Z,99103.88
2023-01-06T00:59:55.734Z,99109.98
2023-01-06T01:03:11.922Z,99117.88
2023-01-06T01:06:28.390Z,99118.69
2023-01-06T01:09:44.519Z,99139.47
2023-01-06T01:13:02.608Z,99137.66
2023-01-06T01:16:19.656Z,99130.47
2023-01-06T01:19:37.208Z,99139.88
2023-01-06T01:22:53.698Z,99142.63
2023-01-06T01:26:10.906Z,99149.70
2023-01-06T01:29:28.110Z,99144.30
2023-01-06T01:32:44.455Z,99154.95
2023-01-06T01:36:00.683Z,99161.03
2023-01-06T01:39:18.386Z,99154.81
2023-01-06T01:42:37.222Z,99154.95
2023-01-06T01:45:57.765Z,99146.66
2023-01-06T01:49:20.046Z,99161.17
2023-01-06T01:52:40.112Z,99174.61
2023-01-06T01:55:58.720Z,99174.20
2023-01-06T01:59:18.090Z,99170.88
2023-01-06T02:02:35.473Z,99177.50
2023-01-06T02:05:55.788Z,99185.13
2023-01-06T02:09:17.675Z,99186.09
2023-01-06T02:12:35.288Z,99191.08
2023-01-06T02:15:52.490Z,99190.23
2023-01-06T02:19:17.175Z,99198.12
2023-01-06T02:22:47.229Z,99196.31
2023-01-06T02:26:50.192Z,99190.91
2023-01-06T02:31:12.799Z,99201.14
2023-01-06T02:34:38.262Z,99195.47
2023-01-06T02:38:02.091Z,99194.50
2023-01-06T02:41:27.289Z,99203.23
2023-01-06T02:44:48.711Z,99211.23
2023-01-06T02:48:12.056Z,99217.34
2023-01-06T02:51:34.077Z,99218.02
2023-01-06T02:54:55.859Z,99227.86
2023-01-06T02:58:17.005Z,99216.07
2023-01-06T03:01:37.365Z,99212.84
2023-01-06T03:04:56.393Z,99229.33
2023-01-06T03:08:17.669Z,99234.86
2023-01-06T03:11:37.846Z,99220.88
2023-01-06T03:14:58.591Z,99213.38
2023-01-06T03:18:15.263Z,99224.35
2023-01-06T03:21:35.845Z,99215.47
2023-01-06T03:24:54.477Z,99224.13
2023-01-06T03:28:11.642Z,99227.51
2023-01-06T03:31:34.734Z,99222.94
2023-01-06T03:35:10.628Z,99230.14
2023-01-06T03:38:35.414Z,99226.80
2023-01-06T03:42:27.496Z,99238.02
2023-01-06T03:45:51.532Z,99236.92
2023-01-06T03:49:14.971Z,99240.52
2023-01-06T03:52:36.921Z,99233.97
2023-01-06T03:55:58.492Z,99229.57
2023-01-06T03:59:19.548Z,99243.80
2023-01-06T04:02:38.101Z,99242.84
2023-01-06T04:05:55.203Z,99253.42
2023-01-06T04:09:11.842Z,99259.77
2023-01-06T04:12:44.046Z,99271.56
2023-01-06T04:16:02.075Z,99263.77
2023-01-06T04:19:18.443Z,99269.32
2023-01-06T04:22:35.799Z,99268.36
2023-01-06T04:25:52.000Z,99278.30
2023-01-06T04:29:09.975Z,99275.67
2023-01-06T04:32:26.530Z,99277.58
2023-01-06T04:35:42.839Z,99279.97
2023-01-06T04:38:59.439Z,99280.92
2023-01-06T04:42:15.654Z,99279.97
2023-01-06T04:45:31.871Z,99281.64
2023-01-06T04:48:48.363Z,99284.27
2023-01-06T04:52:07.824Z,99282.40
2023-01-06T04:55:21.624Z,99292.09
2023-01-06T04:58:38.011Z,99285.81
2023-01-06T05:01:54.563Z,99296.46
2023-01-06T05:05:11.402Z,99295.47
2023-01-06T05:08:27.742Z,99300.28
2023-01-06T05:11:43.904Z,99302.59
2023-01-06T05:15:00.168Z,99298.75
2023-01-06T05:18:16.471Z,99307.58
2023-01-06T05:21:35.207Z,99301.06
2023-01-06T05:24:51.521Z,99299.70
2023-01-06T05:28:07.658Z,99300.48
2023-01-06T05:31:24.438Z,99300.21
2023-01-06T05:34:39.990Z,99297.72
2023-01-06T05:37:56.162Z,99301.70
2023-01-06T05:41:13.805Z,99302.80
2023-01-06T05:44:29.937Z,99299.59
2023-01-06T05:47:46.211Z,99307.47
2023-01-06T05:51:07.835Z,99300.67
2023-01-06T05:54:25.244Z,99309.10
2023-01-06T05:57:44.601Z,99312.58
2023-01-06T06:01:03.263Z,99311.55
2023-01-06T06:04:21.808Z,99331.14
2023-01-06T06:07:38.285Z,99329.02
2023-01-06T06:10:56.015Z,99330.07
2023-01-06T06:14:15.370Z,99335.59
2023-01-06T06:17:32.199Z,99341.29
2023-01-06T06:20:48.273Z,99341.29
2023-01-06T06:24:06.655Z,99339.52
2023-01-06T06:27:22.723Z,99339.52
2023-01-06T06:30:38.978Z,99338.08
2023-01-06T06:33:57.619Z,99345.13
2023-01-06T06:37:13.857Z,99359.07
2023-01-06T06:40:30.009Z,99355.49
2023-01-06T06:43:46.966Z,99358.61
2023-01-06T06:47:03.383Z,99368.29
2023-01-06T06:50:21.456Z,99367.11
2023-01-06T06:53:38.199Z,99374.39
2023-01-06T06:56:54.372Z,99377.02
2023-01-06T07:00:14.441Z,99373.80
2023-01-06T07:03:31.407Z,99368.68
2023-01-06T07:06:47.943Z,99369.01
2023-01-06T07:10:04.685Z,99364.02
2023-01-06T07:13:21.058Z,99379.77
2023-01-06T07:16:37.098Z,99378.69
2023-01-06T07:19:53.200Z,99383.93
2023-01-06T07:23:09.603Z,99393.23
2023-01-06T07:26:25.765Z,99396.81
2023-01-06T07:29:41.935Z,99392.77
2023-01-06T07:32:58.726Z,99399.91
2023-01-06T07:36:16.633Z,99411.25
2023-01-06T07:39:33.292Z,99420.42
2023-01-06T07:42:49.548Z,99409.70
2023-01-06T07:46:06.021Z,99412.44
2023-01-06T07:49:22.820Z,99405.05
2023-01-06T07:52:42.424Z,99413.15
2023-01-06T07:56:02.794Z,99410.40
2023-01-06T07:59:19.131Z,99414.70
2023-01-06T08:02:35.479Z,99416.72
2023-01-06T08:05:52.333Z,99411.45
2023-01-06T08:09:09.776Z,99407.27
2023-01-06T08:12:26.567Z,99418.73
2023-01-06T08:15:43.491Z,99417.27
2023-01-06T08:18:59.712Z,99424.84
2023-01-06T08:22:16.328Z,99431.04
2023-01-06T08:25:32.681Z,99440.94
2023-01-06T08:28:50.270Z,99439.45
2023-01-06T08:32:10.751Z,99447.84
2023-01-06T08:35:30.757Z,99446.45
2023-01-06T08:38:49.803Z,99440.30
2023-01-06T08:42:07.100Z,99451.36
2023-01-06T08:45:27.283Z,99457.12
2023-01-06T08:48:46.923Z,99452.17
2023-01-06T08:52:04.952Z,99450.94
2023-01-06T08:55:21.543Z,99450.72
2023-01-06T08:58:38.098Z,99455.27
2023-01-06T09:02:00.264Z,99458.87
2023-01-06T09:05:19.868Z,99456.48
2023-01-06T09:08:36.278Z,99464.38
2023-01-06T09:11:53.667Z,99462.31
2023-01-06T09:15:10.511Z,99457.20
2023-01-06T09:18:26.586Z,99456.86
2023-01-06T09:21:43.923Z,99459.49
2023-01-06T09:25:00.053Z,99460.97
2023-01-06T09:28:16.277Z,99462.60
2023-01-06T09:31:32.610Z,99456.30
2023-01-06T09:34:48.796Z,99458.50
2023-01-06T09:38:05.651Z,99457.73
2023-01-06T09:42:03.911Z,99453.14
2023-01-06T09:45:24.634Z,99459.08
2023-01-06T09:48:45.598Z,99449.14
2023-01-06T09:52:05.811Z,99431.31
2023-01-06T09:55:29.286Z,99427.31
2023-01-06T09:58:49.697Z,99429.36
2023-01-06T10:02:07.673Z,99419.75
2023-01-06T10:05:32.057Z,99412.24
2023-01-06T10:08:54.277Z,99407.07
2023-01-06T10:12:19.857Z,99399.51
2023-01-06T10:15:43.050Z,99385.46
2023-01-06T10:19:06.672Z,99387.76
2023-01-06T10:22:29.125Z,99384.94
2023-01-06T10:25:50.706Z,99390.25
2023-01-06T10:29:15.277Z,99393.45
2023-01-06T10:33:02.203Z,99382.65
2023-01-06T10:36:34.888Z,99380.59
2023-01-06T10:39:56.455Z,99374.42
2023-01-06T10:43:17.889Z,99372.84
2023-01-06T10:46:38.458Z,99364.46
2023-01-06T10:49:55.260Z,99366.30
2023-01-06T10:53:12.173Z,99357.78
2023-01-06T10:56:28.735Z,99370.26
2023-01-06T11:00:15.812Z,99364.86
2023-01-06T11:03:37.815Z,99363.72
2023-01-06T11:06:58.226Z,99360.41
2023-01-06T11:10:33.190Z,99355.02
2023-01-06T11:13:55.998Z,99346.17
2023-01-06T11:17:15.258Z,99346.32
2023-01-06T11:20:40.277Z,99348.70
2023-01-06T11:23:58.700Z,99339.28
2023-01-06T11:27:26.788Z,99335.41
2023-01-06T11:30:50.064Z,99341.63
2023-01-06T11:34:09.753Z,99340.20
2023-01-06T11:37:36.381Z,99339.19
2023-01-06T11:40:58.259Z,99332.06
2023-01-06T11:44:23.560Z,99337.22
2023-01-06T11:47:40.089Z,99341.38
2023-01-06T11:51:06.024Z,99330.90
2023-01-06T11:54:32.865Z,99333.95
2023-01-06T11:57:54.635Z,99338.83
2023-01-06T12:01:15.129Z,99324.82
2023-01-06T12:04:35.903Z,99328.16
2023-01-06T12:07:58.758Z,99328.70
2023-01-06T12:11:22.629Z,99324.96
2023-01-06T12:14:50.450Z,99323.44
2023-01-06T12:18:11.901Z,99321.66
2023-01-06T12:21:37.520Z,99310.02
2023-01-06T12:24:56.167Z,99301.71
2023-01-06T12:28:21.229Z,99306.15
2023-01-06T12:31:47.194Z,99294.66
2023-01-06T12:35:05.860Z,99276.97
2023-01-06T12:38:31.023Z,99283.61
2023-01-06T12:41:52.602Z,99279.72
2023-01-06T12:45:14.943Z,99273.91
2023-01-06T12:48:41.345Z,99278.20
2023-01-06T12:52:01.689Z,99274.47
2023-01-06T12:55:24.978Z,99275.44
2023-01-06T12:58:48.571Z,99277.95
2023-01-06T13:02:10.083Z,99272.39
2023-01-06T13:05:54.176Z,99269.34
2023-01-06T13:09:40.483Z,99264.38
2023-01-06T13:13:20.717Z,99268.53
2023-01-06T13:16:43.822Z,99266.02
2023-01-06T13:20:03.808Z,99247.18
2023-01-06T13:23:36.791Z,99247.03
2023-01-06T13:27:27.264Z,99238.46
2023-01-06T13:31:12.150Z,99240.13
2023-01-06T13:35:13.198Z,99234.42
2023-01-06T13:39:02.517Z,99216.14
2023-01-06T13:42:23.583Z,99214.22
2023-01-06T13:45:45.955Z,99212.00
2023-01-06T13:49:07.376Z,99210.89
2023-01-06T13:52:27.949Z,99210.89
2023-01-06T13:55:45.183Z,99206.47
2023-01-06T13:59:26.860Z,99202.88
2023-01-06T14:03:28.622Z,99191.65
2023-01-06T14:06:57.539Z,99180.83
2023-01-06T14:10:31.012Z,99177.23
2023-01-06T14:13:51.921Z,99186.09
2023-01-06T14:17:08.771Z,99177.23
2023-01-06T14:20:38.249Z,99182.79
2023-01-06T14:24:06.634Z,99182.64
2023-01-06T14:27:23.240Z,99170.86
2023-01-06T14:30:42.990Z,99163.00
2023-01-06T14:34:02.217Z,99158.15
2023-01-06T14:37:23.467Z,99137.92
2023-01-06T14:40:43.778Z,99131.28
2023-01-06T14:44:06.624Z,99135.44
2023-01-06T14:47:28.823Z,99133.91
2023-01-06T14:50:50.127Z,99134.33
2023-01-06T14:54:14.349Z,99145.41
2023-01-06T14:57:43.212Z,99153.44
2023-01-06T15:01:00.576Z,99154.11
2023-01-06T15:04:31.120Z,99149.29
2023-01-06T15:07:49.903Z,99153.30
2023-01-06T15:11:18.713Z,99147.22
2023-01-06T15:14:41.343Z,99141.81
2023-01-06T15:17:59.276Z,99138.62
2023-01-06T15:21:16.051Z,99134.18
2023-01-06T15:24:37.542Z,99137.25
2023-01-06T15:27:58.673Z,99126.44
2023-01-06T15:31:24.694Z,99131.28
2023-01-06T15:34:47.478Z,99138.92
2023-01-06T15:38:13.590Z,99128.39
2023-01-06T15:41:41.206Z,99125.34
2023-01-06T15:45:07.795Z,99116.34
2023-01-06T15:48:31.139Z,99113.01
2023-01-06T15:51:49.470Z,99124.23
2023-01-06T15:55:08.655Z,99121.59
2023-01-06T15:58:31.277Z,99125.20
2023-01-06T16:01:54.067Z,99122.02
2023-01-06T16:05:11.391Z,99122.02
2023-01-06T16:08:33.626Z,99132.69
2023-01-06T16:12:02.311Z,99119.23
2023-01-06T16:15:51.541Z,99110.94
2023-01-06T16:19:05.952Z,99091.72
2023-01-06T16:22:38.639Z,99079.54
2023-01-06T16:25:56.649Z,99080.91
2023-01-06T16:29:29.415Z,99079.13
2023-01-06T16:32:48.094Z,99074.13
2023-01-06T16:36:05.345Z,99080.20
2023-01-06T16:39:21.848Z,99074.95
2023-01-06T16:42:46.563Z,99066.94
2023-01-06T16:46:06.037Z,99066.13
2023-01-06T16:49:22.700Z,99063.49
2023-01-06T16:52:39.339Z,99065.42
2023-01-06T16:56:00.697Z,99053.39
2023-01-06T16:59:23.169Z,99064.31
2023-01-06T17:02:40.070Z,99051.45
2023-01-06T17:05:56.916Z,99045.49
2023-01-06T17:09:22.026Z,99040.09
2023-01-06T17:12:54.077Z,99037.45
2023-01-06T17:16:22.219Z,99044.91
2023-01-06T17:19:42.141Z,99033.73
2023-01-06T17:22:58.883Z,99033.99
2023-01-06T17:26:22.141Z,99037.72
2023-01-06T17:29:45.464Z,99033.83
2023-01-06T17:33:03.280Z,99044.77
2023-01-06T17:36:29.221Z,99050.13
2023-01-06T17:39:49.680Z,99042.11
2023-01-06T17:43:11.500Z,99042.37
2023-01-06T17:46:35.031Z,99054.39
2023-01-06T17:49:56.076Z,99044.17
2023-01-06T17:53:42.059Z,99042.37
2023-01-06T17:57:00.494Z,99034.94
2023-01-06T18:00:33.114Z,99039.34
2023-01-06T18:03:54.156Z,99039.34
2023-01-06T18:07:14.073Z,99028.84
2023-01-06T18:10:32.362Z,99032.03
2023-01-06T18:13:51.880Z,99034.09
2023-01-06T18:17:14.009Z,99033.28
2023-01-06T18:20:31.543Z,99042.67
2023-01-06T18:23:53.227Z,99041.02
2023-01-06T18:27:16.850Z,99040.87
2023-01-06T18:30:34.757Z,99047.93
2023-01-06T18:33:51.102Z,99050.13
2023-01-06T18:37:08.816Z,99049.67
2023-01-06T18:40:29.931Z,99047.63
2023-01-06T18:43:49.695Z,99050.78
2023-01-06T18:47:07.010Z,99051.77
2023-01-06T18:50:42.778Z,99053.30
2023-01-06T18:54:01.186Z,99044.67
2023-01-06T18:57:25.449Z,99035.28
2023-01-06T19:00:49.792Z,99027.83
2023-01-06T19:04:26.968Z,99042.37
2023-01-06T19:07:45.450Z,99026.19
2023-01-06T19:11:01.960Z,99020.71
2023-01-06T19:14:24.240Z,99019.32
2023-01-06T19:17:44.264Z,99015.03
2023-01-06T19:21:02.645Z,99019.86
2023-01-06T19:24:48.913Z,99012.69
2023-01-06T19:28:07.777Z,99024.31
2023-01-06T19:31:28.408Z,99032.47
2023-01-06T19:34:45.443Z,99037.14
2023-01-06T19:38:07.451Z,99021.23
2023-01-06T19:41:29.723Z,99031.63
2023-01-06T19:44:48.420Z,99037.56
2023-01-06T19:48:06.143Z,99029.01
2023-01-06T19:51:35.250Z,99025.28
2023-01-06T19:54:51.998Z,99025.41
2023-01-06T19:58:12.958Z,99028.59
2023-01-06T20:01:30.790Z,99037.03
2023-01-06T20:04:47.549Z,99031.52
2023-01-06T20:08:04.590Z,99033.05
2023-01-06T20:11:23.599Z,99028.91
2023-01-06T20:14:40.695Z,99031.09
2023-01-06T20:17:59.963Z,99034.28
2023-01-06T20:21:19.219Z,99039.83
2023-01-06T20:24:37.577Z,99047.83
2023-01-06T20:27:54.415Z,99039.95
2023-01-06T20:31:11.210Z,99044.80
2023-01-06T20:34:27.470Z,99048.39
2023-01-06T20:37:44.593Z,99060.98
2023-01-06T20:41:01.695Z,99070.69
2023-01-06T20:44:18.229Z,99078.69
2023-01-06T20:47:35.115Z,99073.31
2023-01-06T20:50:54.073Z,99058.91
2023-01-06T20:54:12.812Z,99059.88
2023-01-06T20:57:29.297Z,99060.98
2023-01-06T21:00:46.933Z,99056.69
2023-01-06T21:04:03.539Z,99058.50
2023-01-06T21:07:20.354Z,99055.32
2023-01-06T21:10:39.798Z,99048.39
2023-01-06T21:13:56.175Z,99058.05
2023-01-06T21:17:13.252Z,99062.48
2023-01-06T21:20:29.635Z,99056.36
2023-01-06T21:23:46.525Z,99058.58
2023-01-06T21:27:02.859Z,99058.98
2023-01-06T21:30:21.496Z,99064.09
2023-01-06T21:33:37.851Z,99074.20
2023-01-06T21:36:54.213Z,99081.13
2023-01-06T21:40:12.107Z,99078.89
2023-01-06T21:43:28.586Z,99085.97
2023-01-06T21:46:45.709Z,99095.38
2023-01-06T21:50:04.476Z,99094.12
2023-01-06T21:53:23.723Z,99084.95
2023-01-06T21:56:43.240Z,99091.61
2023-01-06T21:59:59.429Z,99097.39
2023-01-06T22:03:16.350Z,99100.45
2023-01-06T22:06:34.623Z,99094.34
2023-01-06T22:09:52.725Z,99107.23
2023-01-06T22:13:09.381Z,99101.81
2023-01-06T22:16:26.572Z,99106.77
2023-01-06T22:19:43.645Z,99107.20
2023-01-06T22:23:00.177Z,99112.34
2023-01-06T22:26:16.749Z,99122.30
2023-01-06T22:29:33.148Z,99126.02
2023-01-06T22:32:54.653Z,99124.75
2023-01-06T22:36:11.954Z,99126.11
2023-01-06T22:39:28.142Z,99119.59
2023-01-06T22:42:44.729Z,99116.66
2023-01-06T22:46:05.082Z,99117.35
2023-01-06T22:49:21.847Z,99117.73
2023-01-06T22:52:38.636Z,99119.09
2023-01-06T22:56:03.009Z,99114.80
2023-01-06T22:59:19.376Z,99119.95
2023-01-06T23:02:36.403Z,99121.45
2023-01-06T23:06:03.408Z,99122.97
2023-01-06T23:09:19.870Z,99121.69
2023-01-06T23:12:36.087Z,99127.50
2023-01-06T23:15:53.052Z,99124.27
2023-01-06T23:19:09.452Z,99129.23
2023-01-06T23:22:25.825Z,99129.92
2023-01-06T23:25:41.966Z,99130.46
2023-01-06T23:28:59.338Z,99130.15
2023-01-06T23:32:15.593Z,99135.95
2023-01-06T23:35:32.879Z,99128.74
2023-01-06T23:38:50.004Z,99135.37
2023-01-06T23:42:08.532Z,99138.53
2023-01-06T23:45:25.017Z,99145.16
2023-01-06T23:48:42.730Z,99150.31
2023-01-06T23:51:58.947Z,99155.12
2023-01-06T23:55:16.846Z,99149.40
2023-01-06T23:58:34.747Z,99158.00
